Карточка аэропорта UNWW

Внимание!
Информация на этой странице в стадии наполнения.
Если вы не увидели какой-то информации, или заметили неточность - пожалуйста сообщите нам!
Спасибо!
Команда RU-STAFF
Название аэропортаСпиченково
Название аэропорта (англ.)Spichenkovo
Превышение1023 ft. (311.8 m.)
Координаты53°48.714', 86°52.704'
Высота перехода800m
Эшелон переходаFL050
Коды ответчика5270-5277
Зона ОрВДНовосибирск РПИ (UNNT)
Данные METARUNWW 290900Z 20007G12MPS 9999 -SHRA BKN026CB 10/08 Q1011 R19/290150 NOSIG RMK QFE731
Проноз погоды (TAF)UNWW 290800Z 2909/3009 22006G13MPS 8000 -SHRA BKN039CB TX10/2909Z TN02/2923Z TEMPO 2909/2912 26011G20MPS BKN005 BKN016CB PROB40 TEMPO 2909/2917 -TSRA BECMG 2912/2916 26003G08MPS BECMG 2917/2921 17003G08MPS
NOTAMshow/hide NOTAM
AWOS   TABLE

Информация о ВПП

ВПП Длина ВПП (м.) Покрытие Курс ВПП Частота ILS
012679Цементобетон14 
192679Цементобетон194111.1

Диспетчерские позиции

Позывной Наименование органа УВД Частота
UNWW_APPНовокузнецк-Подход118.6
UNWW_TWRНовокузнецк-Старт121.2



Спутниковое изображение